Time;durP1;ratioP1;P1;durP2;ratioP2;P2;SDS_P1;SDS_P2;PMS_P1;PMS_P2;Temp;Humidity;BMP_temperature;BMP_pressure;BME280_temperature;BME280_humidity;BME280_pressure;Samples;Min_cycle;Max_cycle;Signal;HPM_P1;HPM_P2
2022/04/22 00:00:24;;;;;;;13.23;8.88;;;11.00;99.90;;;;;;5145502;27;20038;-69
2022/04/22 00:02:49;;;;;;;13.95;7.82;;;11.00;99.90;;;;;;5168535;27;20402;-69
2022/04/22 00:05:16;;;;;;;15.02;8.40;;;11.10;99.90;;;;;;5151209;27;20041;-69
2022/04/22 00:07:42;;;;;;;17.63;9.05;;;11.00;99.90;;;;;;5162601;27;20071;-69
2022/04/22 00:10:10;;;;;;;18.48;8.43;;;10.70;99.90;;;;;;5150180;27;20042;-69
2022/04/22 00:12:36;;;;;;;14.00;9.07;;;10.90;99.90;;;;;;5150395;27;20078;-69
2022/04/22 00:15:01;;;;;;;13.93;8.82;;;10.90;99.90;;;;;;5131155;27;20047;-69
2022/04/22 00:17:27;;;;;;;14.25;8.80;;;10.80;99.90;;;;;;5166360;27;20030;-69
2022/04/22 00:19:52;;;;;;;18.85;8.88;;;10.70;99.90;;;;;;5149194;27;20042;-69
2022/04/22 00:22:18;;;;;;;15.95;8.90;;;10.70;99.90;;;;;;5132135;27;20049;-69
2022/04/22 00:24:44;;;;;;;13.73;9.25;;;10.80;99.90;;;;;;5148790;27;20038;-69
2022/04/22 00:27:10;;;;;;;16.83;10.13;;;10.60;99.90;;;;;;5133005;27;20034;-69
2022/04/22 00:29:35;;;;;;;12.07;9.27;;;10.60;99.90;;;;;;5168351;27;20126;-69
2022/04/22 00:32:01;;;;;;;15.95;9.60;;;10.60;99.90;;;;;;5150430;27;20058;-69
2022/04/22 00:34:26;;;;;;;13.05;8.95;;;10.70;99.90;;;;;;5100187;27;20084;-69
2022/04/22 00:36:53;;;;;;;19.40;11.05;;;10.50;99.90;;;;;;5169107;27;20117;-69
2022/04/22 00:39:19;;;;;;;20.88;10.07;;;10.50;99.90;;;;;;5149441;27;20053;-69
2022/04/22 00:41:45;;;;;;;14.45;9.88;;;10.50;99.90;;;;;;5149309;27;20043;-69
2022/04/22 00:44:11;;;;;;;15.88;9.57;;;10.50;99.90;;;;;;5168053;27;20102;-69
2022/04/22 00:46:36;;;;;;;15.95;10.48;;;10.60;99.90;;;;;;5168140;27;20505;-69
2022/04/22 00:49:02;;;;;;;17.10;10.05;;;10.40;99.90;;;;;;5137169;27;20059;-69
2022/04/22 00:51:28;;;;;;;16.27;10.73;;;10.40;99.90;;;;;;5125031;27;20052;-69
2022/04/22 00:53:54;;;;;;;21.95;10.82;;;10.60;99.90;;;;;;5125870;28;20086;-69
2022/04/22 00:56:20;;;;;;;15.68;9.25;;;10.30;99.90;;;;;;5128231;28;20035;-69
2022/04/22 00:58:49;;;;;;;17.17;10.40;;;10.40;99.90;;;;;;5106144;28;20043;-69
2022/04/22 01:01:15;;;;;;;17.58;10.63;;;10.30;99.90;;;;;;5116924;27;20054;-69
2022/04/22 01:12:06;;;;;;;20.27;10.52;;;10.20;99.90;;;;;;5124427;27;20051;-69
2022/04/22 01:14:32;;;;;;;12.37;9.53;;;10.20;99.90;;;;;;5128236;27;20044;-69
2022/04/22 01:17:00;;;;;;;19.30;10.52;;;10.20;99.90;;;;;;5124188;27;20107;-69
2022/04/22 01:19:26;;;;;;;17.00;10.20;;;10.10;99.90;;;;;;5124404;28;20275;-69
2022/04/22 01:21:51;;;;;;;15.45;9.90;;;10.10;99.90;;;;;;5122773;28;20388;-69
2022/04/22 01:24:17;;;;;;;18.60;11.35;;;10.00;99.90;;;;;;5130064;27;20044;-69
2022/04/22 01:26:45;;;;;;;15.82;9.90;;;9.90;99.90;;;;;;5124956;27;20043;-69
2022/04/22 01:29:13;;;;;;;19.80;10.70;;;9.80;99.90;;;;;;5125502;27;20494;-69
2022/04/22 01:31:39;;;;;;;16.23;9.57;;;9.80;99.90;;;;;;5122328;27;20036;-69
2022/04/22 01:34:05;;;;;;;17.67;9.82;;;9.60;99.90;;;;;;5126326;28;20047;-69
2022/04/22 01:36:31;;;;;;;15.70;9.73;;;9.60;99.90;;;;;;5123297;27;20100;-69
2022/04/22 01:38:56;;;;;;;16.05;10.00;;;9.50;99.90;;;;;;5107449;28;20062;-69
2022/04/22 01:41:22;;;;;;;14.25;10.38;;;9.70;99.90;;;;;;5125551;28;20091;-69
2022/04/22 01:43:48;;;;;;;16.85;9.90;;;9.50;99.90;;;;;;5126343;27;20043;-69
2022/04/22 01:46:15;;;;;;;15.60;10.45;;;9.50;99.90;;;;;;5132912;27;20053;-69
2022/04/22 01:48:41;;;;;;;18.67;11.15;;;9.70;99.90;;;;;;5149663;27;20088;-69
2022/04/22 01:51:06;;;;;;;18.10;10.05;;;9.60;99.90;;;;;;5147105;27;20046;-69
2022/04/22 01:53:32;;;;;;;18.55;10.07;;;9.50;99.90;;;;;;5142769;27;20050;-69
2022/04/22 01:55:58;;;;;;;15.02;10.15;;;9.50;99.90;;;;;;5114220;27;20038;-69
2022/04/22 01:58:24;;;;;;;18.10;10.80;;;9.60;99.90;;;;;;5166848;27;20143;-69
2022/04/22 02:00:49;;;;;;;16.95;10.45;;;9.40;99.90;;;;;;5166500;27;20046;-69
2022/04/22 02:03:15;;;;;;;18.95;10.63;;;9.40;99.90;;;;;;5166904;27;20031;-69
2022/04/22 02:05:41;;;;;;;14.77;9.20;;;9.50;99.90;;;;;;5141477;27;20128;-69
2022/04/22 02:08:08;;;;;;;15.15;9.73;;;9.50;99.90;;;;;;5147556;27;20050;-69
2022/04/22 02:10:34;;;;;;;18.52;10.75;;;9.40;99.90;;;;;;5158775;27;20408;-69
2022/04/22 02:13:00;;;;;;;20.73;10.40;;;9.50;99.90;;;;;;5142982;27;20054;-69
2022/04/22 02:15:27;;;;;;;13.98;9.52;;;9.50;99.90;;;;;;5142896;27;20289;-69
2022/04/22 02:17:53;;;;;;;17.98;10.43;;;9.40;99.90;;;;;;5142254;27;20077;-69
2022/04/22 02:20:19;;;;;;;16.42;10.35;;;9.40;99.90;;;;;;5142674;27;20046;-69
2022/04/22 02:22:45;;;;;;;16.73;10.02;;;9.60;99.90;;;;;;5166734;27;20121;-69
2022/04/22 02:25:10;;;;;;;19.05;9.80;;;9.40;99.90;;;;;;5146763;27;20557;-69
2022/04/22 02:30:21;;;;;;;13.32;9.27;;;9.40;99.90;;;;;;5145632;27;20054;-69
2022/04/22 02:32:47;;;;;;;15.48;9.43;;;9.40;99.90;;;;;;5164430;27;20052;-69
2022/04/22 02:35:13;;;;;;;14.95;9.35;;;9.30;99.90;;;;;;5142838;27;20447;-69
2022/04/22 02:37:39;;;;;;;15.07;9.60;;;9.30;99.90;;;;;;5140890;27;20054;-69
2022/04/22 02:40:06;;;;;;;15.02;8.63;;;9.20;99.90;;;;;;5144775;27;20121;-69
2022/04/22 02:45:28;;;;;;;13.95;8.48;;;9.30;99.90;;;;;;5158674;27;20092;-69
2022/04/22 02:47:57;;;;;;;13.77;8.50;;;9.40;99.90;;;;;;5146977;27;20056;-69
2022/04/22 02:50:23;;;;;;;11.33;8.27;;;9.40;99.90;;;;;;5145485;27;20047;-69
2022/04/22 02:52:49;;;;;;;11.80;8.52;;;9.50;99.90;;;;;;5144991;27;20053;-69
2022/04/22 02:55:15;;;;;;;13.48;8.13;;;9.50;99.90;;;;;;5142039;27;20098;-69
2022/04/22 02:57:43;;;;;;;13.05;8.77;;;9.50;99.90;;;;;;5166417;27;20031;-69
2022/04/22 03:00:12;;;;;;;12.90;7.80;;;9.30;99.90;;;;;;5161823;27;20090;-69
2022/04/22 03:02:37;;;;;;;13.00;8.02;;;9.20;99.90;;;;;;5147884;27;20049;-69
2022/04/22 03:05:03;;;;;;;14.60;8.13;;;9.20;99.90;;;;;;5145167;27;20038;-69
2022/04/22 03:07:29;;;;;;;10.85;7.15;;;9.20;99.90;;;;;;5143158;27;20055;-69
2022/04/22 03:09:54;;;;;;;14.63;7.95;;;9.30;99.90;;;;;;5129999;27;20063;-69
2022/04/22 03:12:22;;;;;;;11.45;7.47;;;9.20;99.90;;;;;;5147884;27;20038;-69
2022/04/22 03:14:47;;;;;;;13.50;7.10;;;9.20;99.90;;;;;;5165519;27;20198;-69
2022/04/22 03:17:13;;;;;;;8.70;7.03;;;9.20;99.90;;;;;;5145959;27;20402;-69
2022/04/22 03:19:39;;;;;;;9.48;6.80;;;9.20;99.90;;;;;;5141855;27;20043;-69
2022/04/22 03:22:05;;;;;;;12.82;6.72;;;9.20;99.90;;;;;;5144479;27;20057;-69
2022/04/22 03:24:31;;;;;;;9.40;6.80;;;9.10;99.90;;;;;;5163410;27;20027;-69
2022/04/22 03:26:57;;;;;;;13.75;7.00;;;9.00;99.90;;;;;;5147008;27;20118;-69
2022/04/22 03:29:23;;;;;;;12.95;6.60;;;9.10;99.90;;;;;;5148680;27;20060;-69
2022/04/22 03:31:48;;;;;;;13.38;6.70;;;8.80;99.90;;;;;;5145876;27;20046;-69
2022/04/22 03:34:14;;;;;;;9.60;6.60;;;8.70;99.90;;;;;;5146505;27;20061;-69
2022/04/22 03:36:39;;;;;;;12.50;6.63;;;8.60;99.90;;;;;;5148849;27;20126;-69
2022/04/22 03:39:05;;;;;;;11.77;7.45;;;8.50;99.90;;;;;;5162519;27;20039;-69
2022/04/22 03:41:31;;;;;;;8.32;6.25;;;8.30;99.90;;;;;;5151065;27;20046;-69
2022/04/22 03:43:57;;;;;;;9.82;6.43;;;8.30;99.90;;;;;;5147121;27;20050;-69
2022/04/22 03:46:22;;;;;;;12.15;6.65;;;8.40;99.90;;;;;;5165351;27;20110;-69
2022/04/22 03:48:48;;;;;;;10.77;6.13;;;8.30;99.90;;;;;;5168148;27;20066;-69
2022/04/22 03:51:14;;;;;;;9.32;6.10;;;8.40;99.90;;;;;;5167503;27;20072;-69
2022/04/22 03:53:41;;;;;;;10.55;6.60;;;8.30;99.90;;;;;;5151197;27;20043;-69
2022/04/22 03:58:51;;;;;;;8.40;5.85;;;8.40;99.90;;;;;;5149750;27;20058;-69
2022/04/22 04:01:16;;;;;;;10.43;6.70;;;8.20;99.90;;;;;;5149879;27;20035;-69
2022/04/22 04:03:43;;;;;;;8.68;6.55;;;8.10;99.90;;;;;;5146840;27;20035;-69
2022/04/22 04:06:08;;;;;;;10.65;6.82;;;7.90;99.90;;;;;;5146176;27;20098;-69
2022/04/22 04:08:34;;;;;;;9.98;6.45;;;7.90;99.90;;;;;;5147624;27;20077;-69
2022/04/22 04:16:25;;;;;;;10.13;6.72;;;7.90;99.90;;;;;;5147822;27;20054;-69
2022/04/22 04:18:50;;;;;;;10.63;6.40;;;7.90;99.90;;;;;;5165264;27;20046;-69
2022/04/22 04:24:01;;;;;;;10.80;6.65;;;7.90;99.90;;;;;;5150761;27;20496;-69
2022/04/22 04:26:26;;;;;;;9.52;6.55;;;8.00;99.90;;;;;;5168033;27;20055;-69
2022/04/22 04:28:53;;;;;;;10.18;6.13;;;8.00;99.90;;;;;;5147120;27;20122;-69
2022/04/22 04:31:19;;;;;;;10.98;5.82;;;7.90;99.90;;;;;;5134015;27;20041;-69
2022/04/22 04:33:46;;;;;;;14.63;6.72;;;8.00;99.90;;;;;;5131820;27;20062;-69
2022/04/22 04:36:12;;;;;;;7.88;6.15;;;8.00;99.90;;;;;;5149481;27;20134;-69
2022/04/22 04:38:39;;;;;;;8.85;6.30;;;7.80;99.90;;;;;;5147701;27;20047;-69
2022/04/22 04:41:08;;;;;;;11.65;6.78;;;7.90;99.90;;;;;;5168960;27;20043;-69
2022/04/22 04:43:35;;;;;;;12.07;6.30;;;7.80;99.90;;;;;;5142809;27;20043;-69
2022/04/22 04:46:02;;;;;;;9.43;6.20;;;8.00;99.90;;;;;;5147775;27;20486;-69
2022/04/22 04:48:27;;;;;;;10.00;6.50;;;8.00;99.90;;;;;;5147848;27;20117;-70
2022/04/22 04:50:55;;;;;;;17.90;7.45;;;8.00;99.90;;;;;;5128314;27;20051;-69
2022/04/22 04:53:23;;;;;;;9.90;6.57;;;8.10;99.90;;;;;;5167888;27;20057;-69
2022/04/22 04:55:50;;;;;;;12.75;6.80;;;8.10;99.90;;;;;;5147487;27;20474;-69
2022/04/22 04:58:16;;;;;;;7.22;5.90;;;8.20;99.90;;;;;;5140115;27;20227;-70
2022/04/22 05:00:44;;;;;;;8.95;6.65;;;8.20;99.90;;;;;;5148003;27;20039;-69
2022/04/22 05:03:11;;;;;;;11.18;6.82;;;8.10;99.90;;;;;;5145653;27;20133;-70
2022/04/22 05:05:38;;;;;;;10.05;6.30;;;8.10;99.90;;;;;;5167431;27;20066;-70
2022/04/22 05:08:05;;;;;;;11.35;6.88;;;8.10;99.90;;;;;;5168318;27;20049;-69
2022/04/22 05:10:32;;;;;;;11.63;6.53;;;8.00;99.90;;;;;;5168556;27;20047;-70
2022/04/22 05:13:03;;;;;;;9.07;6.10;;;8.20;99.90;;;;;;5167967;27;20035;-70
2022/04/22 05:15:30;;;;;;;12.52;6.32;;;8.10;99.90;;;;;;5148912;27;20091;-70
2022/04/22 05:17:56;;;;;;;12.05;6.15;;;8.10;99.90;;;;;;5165675;27;20039;-70
2022/04/22 05:20:26;;;;;;;10.30;6.35;;;8.10;99.90;;;;;;5142090;27;20118;-70
2022/04/22 05:22:56;;;;;;;9.88;6.53;;;8.10;99.90;;;;;;5148948;27;20398;-70
2022/04/22 05:25:22;;;;;;;11.55;6.90;;;8.10;99.90;;;;;;5167740;27;20049;-70
2022/04/22 05:27:48;;;;;;;13.13;6.97;;;8.10;99.90;;;;;;5143970;27;20079;-71
2022/04/22 05:33:00;;;;;;;9.85;6.60;;;8.20;99.90;;;;;;5145503;27;20066;-69
2022/04/22 05:35:27;;;;;;;8.35;6.40;;;8.20;99.90;;;;;;5144446;27;20160;-68
2022/04/22 05:38:01;;;;;;;8.57;6.50;;;8.20;99.90;;;;;;5143578;27;20062;-68
2022/04/22 05:40:30;;;;;;;10.60;6.72;;;8.20;99.90;;;;;;5147817;27;20493;-68
2022/04/22 05:42:56;;;;;;;14.05;6.25;;;8.20;99.90;;;;;;5166547;27;20062;-68
2022/04/22 05:45:23;;;;;;;12.15;6.72;;;8.20;99.90;;;;;;5141912;27;20042;-68
2022/04/22 05:47:51;;;;;;;8.63;6.55;;;8.30;99.90;;;;;;5167478;27;20071;-68
2022/04/22 05:50:18;;;;;;;11.15;6.72;;;8.30;99.90;;;;;;5167303;27;20055;-68
2022/04/22 05:52:44;;;;;;;10.15;6.65;;;8.30;99.90;;;;;;5144428;27;20043;-69
2022/04/22 05:55:13;;;;;;;8.75;6.30;;;8.40;99.90;;;;;;5148039;27;20073;-67
2022/04/22 05:57:39;;;;;;;8.70;5.97;;;8.30;99.90;;;;;;5146004;27;20039;-68
2022/04/22 06:00:08;;;;;;;12.10;6.20;;;8.60;99.90;;;;;;5143731;27;20129;-68
2022/04/22 06:02:34;;;;;;;11.98;6.07;;;8.60;99.90;;;;;;5166993;27;20046;-68
2022/04/22 06:05:00;;;;;;;9.43;6.00;;;8.60;99.90;;;;;;5129800;27;20043;-68
2022/04/22 06:07:26;;;;;;;14.27;6.80;;;8.70;99.90;;;;;;5148048;27;20047;-68
2022/04/22 06:12:36;;;;;;;10.70;5.88;;;8.80;99.90;;;;;;5165660;27;20556;-68
2022/04/22 06:15:04;;;;;;;8.10;6.90;;;9.00;99.90;;;;;;5166374;27;20035;-69
2022/04/22 06:17:31;;;;;;;13.13;5.60;;;8.90;99.90;;;;;;5142205;27;20078;-69
2022/04/22 06:19:58;;;;;;;12.50;6.25;;;8.90;99.90;;;;;;5143967;27;20103;-69
2022/04/22 06:22:25;;;;;;;7.50;5.57;;;9.00;99.90;;;;;;5130202;27;20046;-69
2022/04/22 06:24:50;;;;;;;9.18;6.15;;;9.10;99.90;;;;;;5146570;27;20050;-68
2022/04/22 06:27:27;;;;;;;11.77;5.78;;;9.20;99.90;;;;;;5128820;27;20057;-69
2022/04/22 06:29:54;;;;;;;10.32;7.00;;;9.10;99.90;;;;;;5145840;27;20492;-68
2022/04/22 06:32:22;;;;;;;9.60;5.35;;;9.10;99.90;;;;;;5147394;27;20059;-68
2022/04/22 06:34:52;;;;;;;8.85;6.22;;;9.20;99.90;;;;;;5140575;27;20061;-68
2022/04/22 06:37:18;;;;;;;8.68;5.72;;;9.40;99.90;;;;;;5146446;27;20043;-64
2022/04/22 06:47:58;;;;;;;6.82;4.95;;;9.50;99.90;;;;;;5143773;27;20050;-67
2022/04/22 06:50:24;;;;;;;7.88;5.35;;;9.50;99.90;;;;;;5145282;27;20058;-67
2022/04/22 06:52:50;;;;;;;8.50;5.70;;;9.60;99.90;;;;;;5143195;27;20606;-67
2022/04/22 06:55:19;;;;;;;7.95;5.30;;;9.80;99.90;;;;;;5163439;27;20043;-67
2022/04/22 06:57:49;;;;;;;7.82;5.28;;;9.80;99.90;;;;;;5145530;27;20047;-67
2022/04/22 07:00:18;;;;;;;7.53;5.65;;;9.80;99.90;;;;;;5146296;27;20046;-67
2022/04/22 07:02:45;;;;;;;7.85;5.57;;;9.90;99.90;;;;;;5165038;27;20035;-67
2022/04/22 07:05:12;;;;;;;7.22;5.30;;;9.90;99.90;;;;;;5145287;27;20167;-67
2022/04/22 07:07:38;;;;;;;8.60;5.35;;;10.00;99.90;;;;;;5163820;27;20045;-67
2022/04/22 07:10:05;;;;;;;5.70;5.10;;;9.90;99.90;;;;;;5143328;27;20057;-67
2022/04/22 07:12:32;;;;;;;6.65;4.80;;;10.10;99.90;;;;;;5162273;27;20084;-67
2022/04/22 07:15:04;;;;;;;6.47;4.75;;;10.10;99.90;;;;;;5163657;27;20039;-67
2022/04/22 07:17:34;;;;;;;5.45;4.43;;;10.20;99.90;;;;;;5138085;27;20046;-67
2022/04/22 07:20:09;;;;;;;8.63;5.20;;;10.20;99.90;;;;;;5164601;27;20046;-67
2022/04/22 07:22:36;;;;;;;9.23;4.78;;;10.30;99.90;;;;;;5165227;27;20406;-67
2022/04/22 07:25:02;;;;;;;10.88;4.97;;;10.40;99.90;;;;;;5142734;27;20044;-67
2022/04/22 07:27:30;;;;;;;5.75;4.45;;;10.50;99.90;;;;;;5129996;27;20054;-67
2022/04/22 07:29:59;;;;;;;9.52;4.43;;;10.50;99.90;;;;;;5141526;27;20051;-67
2022/04/22 07:32:26;;;;;;;7.07;4.40;;;10.50;99.90;;;;;;5145274;27;20053;-67
2022/04/22 07:34:54;;;;;;;5.50;4.40;;;10.60;99.90;;;;;;5146363;27;20039;-67
2022/04/22 07:37:21;;;;;;;6.28;4.32;;;10.70;99.90;;;;;;5166459;27;20043;-67
2022/04/22 07:39:47;;;;;;;7.22;3.90;;;10.70;99.90;;;;;;5159400;27;20035;-67
2022/04/22 07:42:18;;;;;;;8.75;4.15;;;10.80;99.90;;;;;;5160568;27;20061;-67
2022/04/22 07:47:34;;;;;;;5.17;4.17;;;10.90;99.90;;;;;;5158818;27;20111;-67
2022/04/22 07:50:02;;;;;;;5.43;4.07;;;11.00;99.90;;;;;;5157466;27;20054;-67
2022/04/22 07:52:28;;;;;;;5.78;4.20;;;11.20;99.90;;;;;;5158461;27;20049;-67
2022/04/22 07:54:54;;;;;;;6.75;4.15;;;11.20;99.90;;;;;;5143859;27;20453;-67
2022/04/22 07:57:21;;;;;;;7.28;4.43;;;11.20;99.90;;;;;;5140096;27;20039;-67
2022/04/22 07:59:47;;;;;;;5.05;3.72;;;11.30;99.90;;;;;;5130022;27;20405;-67
2022/04/22 08:02:13;;;;;;;5.68;3.53;;;11.30;99.90;;;;;;5145962;27;20078;-67
2022/04/22 08:04:39;;;;;;;6.25;3.95;;;11.30;99.90;;;;;;5147216;27;20039;-67
2022/04/22 08:07:06;;;;;;;6.63;3.85;;;11.50;99.90;;;;;;5163744;27;20067;-67
2022/04/22 08:09:31;;;;;;;6.85;4.28;;;11.70;99.90;;;;;;5144698;27;20071;-67
2022/04/22 08:11:57;;;;;;;6.07;3.60;;;11.80;99.90;;;;;;5142112;27;20039;-67
2022/04/22 08:14:24;;;;;;;5.90;3.47;;;11.80;99.90;;;;;;5143848;27;20043;-67
2022/04/22 08:16:50;;;;;;;7.05;4.07;;;12.10;99.90;;;;;;5162837;27;20466;-67
2022/04/22 08:19:16;;;;;;;5.57;3.95;;;12.10;99.90;;;;;;5147667;27;20035;-67
2022/04/22 08:21:42;;;;;;;5.88;3.60;;;12.10;99.90;;;;;;5126781;27;20046;-67
2022/04/22 08:24:10;;;;;;;6.50;4.03;;;12.00;99.90;;;;;;5133257;27;20034;-67
2022/04/22 08:26:36;;;;;;;6.13;3.70;;;12.20;99.90;;;;;;5149038;27;20582;-67
2022/04/22 08:29:03;;;;;;;7.80;3.72;;;12.20;99.90;;;;;;5129768;27;20050;-67
2022/04/22 08:31:29;;;;;;;9.30;4.32;;;12.20;99.90;;;;;;5167770;27;20034;-68
2022/04/22 08:33:57;;;;;;;6.22;3.80;;;12.30;99.90;;;;;;5148023;27;20049;-67
2022/04/22 08:36:30;;;;;;;6.68;3.65;;;12.40;99.90;;;;;;5168374;27;20046;-67
2022/04/22 08:38:57;;;;;;;7.32;3.92;;;12.50;99.90;;;;;;5140152;27;20046;-67
2022/04/22 08:41:23;;;;;;;6.05;4.00;;;12.40;99.90;;;;;;5125067;27;20095;-67
2022/04/22 08:43:56;;;;;;;7.97;3.90;;;12.60;99.90;;;;;;5132121;27;20122;-67
2022/04/22 08:51:54;;;;;;;7.22;4.00;;;13.00;99.90;;;;;;5148140;27;20039;-67
2022/04/22 08:54:21;;;;;;;9.23;3.85;;;13.10;99.90;;;;;;5148912;27;20074;-67
2022/04/22 08:56:50;;;;;;;6.13;3.75;;;13.20;99.90;;;;;;5146408;27;20047;-67
2022/04/22 08:59:16;;;;;;;6.47;3.60;;;13.50;99.90;;;;;;5163434;27;20075;-67
2022/04/22 09:01:42;;;;;;;9.43;4.10;;;13.40;99.90;;;;;;5147217;27;20119;-67
2022/04/22 09:04:08;;;;;;;5.68;3.50;;;13.40;99.90;;;;;;5149348;27;20042;-67
2022/04/22 09:06:35;;;;;;;6.80;3.75;;;13.30;99.90;;;;;;5150256;27;20137;-67
2022/04/22 09:09:04;;;;;;;6.00;3.75;;;13.40;99.90;;;;;;5167025;27;20035;-67
2022/04/22 09:11:30;;;;;;;6.47;3.67;;;13.40;99.90;;;;;;5148716;27;20050;-67
2022/04/22 09:14:00;;;;;;;5.95;3.33;;;13.40;99.90;;;;;;5145456;27;20166;-67
2022/04/22 09:16:26;;;;;;;4.15;3.42;;;13.50;99.90;;;;;;5149127;27;20102;-67
2022/04/22 09:19:03;;;;;;;4.82;3.60;;;13.60;99.90;;;;;;5145641;27;20054;-67
2022/04/22 09:21:32;;;;;;;5.63;3.35;;;13.60;99.90;;;;;;5131731;27;20051;-67
2022/04/22 09:24:13;;;;;;;5.90;3.33;;;13.70;99.90;;;;;;5167167;27;20031;-67
2022/04/22 09:26:40;;;;;;;6.13;3.20;;;13.90;99.90;;;;;;5164567;27;20035;-67
2022/04/22 09:29:06;;;;;;;5.40;3.67;;;13.80;99.90;;;;;;5164262;27;20061;-67
2022/04/22 09:31:49;;;;;;;10.10;3.50;;;13.90;99.90;;;;;;5149236;27;20078;-67
2022/04/22 09:34:15;;;;;;;7.85;3.70;;;13.80;99.90;;;;;;5161924;27;20043;-68
2022/04/22 09:45:07;;;;;;;6.38;3.42;;;14.10;99.90;;;;;;5144342;27;20057;-68
2022/04/22 09:47:35;;;;;;;7.55;3.70;;;14.10;99.90;;;;;;5132918;27;20047;-68
2022/04/22 09:50:10;;;;;;;6.57;3.90;;;14.40;99.90;;;;;;5168331;27;20082;-68
2022/04/22 09:52:38;;;;;;;6.85;4.20;;;14.60;99.90;;;;;;5145468;27;20058;-68
2022/04/22 09:55:07;;;;;;;7.93;4.43;;;14.70;99.90;;;;;;5147195;27;20051;-68
2022/04/22 09:57:52;;;;;;;6.93;4.30;;;14.90;99.90;;;;;;5165452;27;20118;-68
2022/04/22 10:00:23;;;;;;;7.60;3.92;;;14.90;99.90;;;;;;5141877;27;20047;-68
2022/04/22 10:02:50;;;;;;;10.57;4.75;;;15.10;99.90;;;;;;5127220;27;20123;-67
2022/04/22 10:05:23;;;;;;;6.05;4.07;;;15.20;99.90;;;;;;5145364;27;20043;-67
2022/04/22 10:07:53;;;;;;;5.90;4.10;;;15.20;99.90;;;;;;5144078;27;20042;-68
2022/04/22 10:10:22;;;;;;;;;;;15.00;99.90;;;;;;5139773;27;20039;-68
2022/04/22 10:12:49;;;;;;;5.97;4.35;;;15.00;99.90;;;;;;5143375;27;19926;-68
2022/04/22 10:15:19;;;;;;;7.20;4.85;;;15.30;99.90;;;;;;5148001;27;20098;-67
2022/04/22 10:17:46;;;;;;;7.07;4.55;;;15.30;99.90;;;;;;5144666;27;20042;-67
2022/04/22 10:20:12;;;;;;;6.97;4.18;;;15.40;99.90;;;;;;5165746;27;20045;-67
2022/04/22 10:22:39;;;;;;;6.45;4.65;;;15.50;99.90;;;;;;5147502;27;20043;-68
2022/04/22 10:25:07;;;;;;;9.75;4.68;;;15.60;99.90;;;;;;5143444;27;20034;-67
2022/04/22 10:27:39;;;;;;;11.13;4.53;;;15.40;99.90;;;;;;5147554;27;20062;-68
2022/04/22 10:30:11;;;;;;;6.20;4.22;;;15.60;99.90;;;;;;5147219;27;20039;-68
2022/04/22 10:32:40;;;;;;;7.10;5.68;;;15.70;99.90;;;;;;5146946;27;20538;-68
2022/04/22 10:35:07;;;;;;;7.63;4.80;;;15.90;99.90;;;;;;5124232;27;20042;-67
2022/04/22 10:37:34;;;;;;;5.63;3.97;;;16.00;99.90;;;;;;5163748;27;20026;-68
2022/04/22 10:40:02;;;;;;;7.60;4.43;;;15.90;99.90;;;;;;5144447;27;20046;-68
2022/04/22 10:42:38;;;;;;;8.50;4.95;;;16.00;99.90;;;;;;5144594;27;20098;-68
2022/04/22 10:47:49;;;;;;;6.60;4.13;;;16.00;99.90;;;;;;5159734;27;20055;-67
2022/04/22 10:50:33;;;;;;;7.07;4.55;;;16.10;99.90;;;;;;5165424;27;20062;-68
2022/04/22 10:53:03;;;;;;;6.57;4.80;;;16.20;99.90;;;;;;5146459;27;20175;-68
2022/04/22 10:55:39;;;;;;;9.05;5.22;;;16.30;99.90;;;;;;5166181;27;20046;-68
2022/04/22 10:58:17;;;;;;;7.88;5.55;;;16.30;99.90;;;;;;5147226;27;20117;-68
2022/04/22 11:00:57;;;;;;;8.27;4.63;;;16.20;99.90;;;;;;5144542;27;20061;-68
2022/04/22 11:03:31;;;;;;;6.78;4.43;;;16.40;99.90;;;;;;5156324;27;20074;-68
2022/04/22 11:05:58;;;;;;;6.20;4.78;;;16.70;99.90;;;;;;5158822;27;20047;-68
2022/04/22 11:08:32;;;;;;;7.47;4.25;;;16.80;99.90;;;;;;5144119;27;20107;-68
2022/04/22 11:11:04;;;;;;;11.88;4.50;;;16.70;99.90;;;;;;5121227;27;20123;-68
2022/04/22 11:13:40;;;;;;;5.82;4.70;;;16.50;99.90;;;;;;5146487;27;20498;-68
2022/04/22 11:16:30;;;;;;;5.95;4.47;;;16.50;99.90;;;;;;5146639;27;20368;-68
2022/04/22 11:19:18;;;;;;;8.63;5.32;;;16.60;99.90;;;;;;5141262;27;20074;-68
2022/04/22 11:21:45;;;;;;;6.40;4.60;;;16.80;99.90;;;;;;5166437;27;20102;-68
2022/04/22 11:24:19;;;;;;;7.22;4.43;;;16.90;99.90;;;;;;5123955;27;20046;-68
2022/04/22 11:26:46;;;;;;;6.13;4.85;;;16.90;99.90;;;;;;5126981;27;20039;-68
2022/04/22 11:29:14;;;;;;;7.32;4.50;;;17.00;99.90;;;;;;5144596;27;20050;-68
2022/04/22 11:31:40;;;;;;;7.45;4.80;;;17.00;99.90;;;;;;5142868;27;20098;-68
2022/04/22 11:34:14;;;;;;;7.55;4.75;;;17.20;99.90;;;;;;5141998;27;20098;-68
2022/04/22 11:36:47;;;;;;;7.78;4.97;;;17.20;99.90;;;;;;5141215;27;20053;-68
2022/04/22 11:39:15;;;;;;;7.85;4.80;;;17.30;99.90;;;;;;5163949;27;20455;-68
2022/04/22 11:41:57;;;;;;;6.13;4.90;;;17.60;99.90;;;;;;5123873;27;20035;-68
2022/04/22 11:44:24;;;;;;;8.88;5.22;;;17.60;99.90;;;;;;5145927;27;20516;-68
2022/04/22 11:46:51;;;;;;;8.77;4.57;;;17.80;99.90;;;;;;5140348;27;20046;-68
2022/04/22 11:49:17;;;;;;;10.35;5.20;;;17.70;99.90;;;;;;5147454;27;20410;-68
2022/04/22 11:51:43;;;;;;;7.68;5.07;;;17.80;99.90;;;;;;5168953;27;20039;-68
2022/04/22 11:54:08;;;;;;;6.50;5.15;;;17.70;99.90;;;;;;5147529;27;20043;-68
2022/04/22 11:56:35;;;;;;;6.78;5.18;;;17.80;99.90;;;;;;5143869;27;20067;-68
2022/04/22 11:59:02;;;;;;;9.90;4.88;;;17.60;99.90;;;;;;5168800;27;20043;-68
2022/04/22 12:08:00;;;;;;;6.45;5.28;;;18.20;99.90;;;;;;5151802;27;20088;-68
2022/04/22 12:09:58;;;;;;;8.75;4.95;;;18.30;99.90;;;;;;5149754;27;20104;-68
2022/04/22 12:12:24;;;;;;;5.57;4.78;;;18.60;99.90;;;;;;5168987;27;20103;-68
2022/04/22 12:14:59;;;;;;;7.68;5.45;;;18.70;99.90;;;;;;5168412;27;20077;-68
2022/04/22 12:17:24;;;;;;;9.05;5.07;;;18.70;99.90;;;;;;5145568;27;20047;-68
2022/04/22 12:19:51;;;;;;;6.68;5.63;;;18.60;99.90;;;;;;5148908;27;20041;-68
2022/04/22 12:22:17;;;;;;;7.95;5.35;;;18.50;99.90;;;;;;5168027;27;20046;-68
2022/04/22 12:25:12;;;;;;;9.40;5.57;;;18.60;99.90;;;;;;5145502;27;20051;-68
2022/04/22 12:27:39;;;;;;;8.77;5.70;;;18.60;99.90;;;;;;5146540;27;20039;-68
2022/04/22 12:30:10;;;;;;;11.52;6.55;;;18.70;99.90;;;;;;5142356;27;20043;-68
2022/04/22 12:32:37;;;;;;;7.97;6.03;;;18.80;99.90;;;;;;5145374;27;20043;-68
2022/04/22 12:35:17;;;;;;;9.10;6.75;;;18.80;99.90;;;;;;5147139;27;20049;-68
2022/04/22 12:37:51;;;;;;;11.13;6.50;;;19.00;99.90;;;;;;5144930;27;20128;-68
2022/04/22 12:40:19;;;;;;;9.57;5.80;;;19.10;99.90;;;;;;5148290;27;20146;-68
2022/04/22 12:42:54;;;;;;;9.73;6.43;;;19.10;99.90;;;;;;5160560;27;20042;-68
2022/04/22 12:53:48;;;;;;;10.18;7.18;;;19.80;99.90;;;;;;5143904;27;20051;-70
2022/04/22 12:56:14;;;;;;;11.45;8.25;;;19.60;99.90;;;;;;5168738;27;20056;-71
2022/04/22 12:58:57;;;;;;;10.10;6.85;;;19.80;99.90;;;;;;5150432;27;20043;-69
2022/04/22 13:01:30;;;;;;;10.93;9.82;;;19.80;99.90;;;;;;5136523;27;20137;-69
2022/04/22 13:03:57;;;;;;;9.82;7.15;;;20.30;99.90;;;;;;5144038;27;20047;-69
2022/04/22 13:06:55;;;;;;;13.00;7.35;;;20.30;99.80;;;;;;5126856;27;20061;-69
2022/04/22 13:09:22;;;;;;;12.38;7.75;;;20.20;99.40;;;;;;5042814;28;20058;-68
2022/04/22 13:11:51;;;;;;;9.95;7.53;;;20.00;99.50;;;;;;5027274;28;20124;-69
2022/04/22 13:14:17;;;;;;;11.32;7.85;;;19.90;99.50;;;;;;5027885;28;20053;-68
2022/04/22 13:16:43;;;;;;;11.32;7.72;;;19.80;99.50;;;;;;5027517;28;20145;-69
2022/04/22 13:19:08;;;;;;;11.90;7.93;;;19.40;99.90;;;;;;5044167;28;20058;-69
2022/04/22 13:21:35;;;;;;;11.15;8.05;;;19.40;99.90;;;;;;5042893;28;20073;-68
2022/04/22 13:24:02;;;;;;;9.98;7.55;;;19.20;99.90;;;;;;5026265;28;20042;-68
2022/04/22 13:26:28;;;;;;;12.73;7.63;;;18.90;99.90;;;;;;5025312;28;20053;-69
2022/04/22 13:28:55;;;;;;;10.10;7.22;;;18.90;99.90;;;;;;5042517;28;20067;-68
2022/04/22 13:31:22;;;;;;;9.52;7.70;;;19.00;99.90;;;;;;5026485;28;20053;-69
2022/04/22 13:33:48;;;;;;;12.35;7.38;;;19.20;99.90;;;;;;5011065;28;20509;-69
2022/04/22 13:36:15;;;;;;;10.60;7.22;;;19.40;99.90;;;;;;5026002;28;20091;-69
2022/04/22 13:38:43;;;;;;;11.30;7.28;;;19.40;99.90;;;;;;5025028;28;20056;-69
2022/04/22 13:41:09;;;;;;;10.75;6.75;;;19.40;99.90;;;;;;5025128;28;20121;-69
2022/04/22 13:43:35;;;;;;;9.20;7.28;;;19.70;99.90;;;;;;5006048;28;20630;-69
2022/04/22 13:54:17;;;;;;;8.68;6.07;;;20.00;98.80;;;;;;5147206;27;20530;-69
2022/04/22 13:56:43;;;;;;;13.98;5.75;;;19.90;98.80;;;;;;5128698;27;20039;-69
2022/04/22 13:59:09;;;;;;;9.25;7.22;;;20.30;98.00;;;;;;5125579;27;20494;-74
2022/04/22 14:01:34;;;;;;;10.95;7.38;;;20.30;97.20;;;;;;5112744;27;20158;-74
2022/04/22 14:04:00;;;;;;;10.20;6.68;;;20.50;96.10;;;;;;5101455;27;20070;-69
2022/04/22 14:06:27;;;;;;;8.68;6.05;;;21.10;96.00;;;;;;5120182;27;20221;-79
2022/04/22 14:08:52;;;;;;;10.45;6.00;;;22.10;94.40;;;;;;5114830;27;20118;-69